createdAt,value
2018-07-25T00:00:31.749Z,67.60
2018-07-25T00:03:00.187Z,68.10
2018-07-25T00:05:28.564Z,69.00
2018-07-25T00:07:56.947Z,69.90
2018-07-25T00:10:44.521Z,70.20
2018-07-25T00:13:12.888Z,71.10
2018-07-25T00:15:41.282Z,71.40
2018-07-25T00:18:09.700Z,71.80
2018-07-25T00:20:38.103Z,72.50
2018-07-25T00:23:06.762Z,72.60
2018-07-25T00:25:35.187Z,73.10
2018-07-25T00:28:03.580Z,73.70
2018-07-25T00:30:31.941Z,74.20
2018-07-25T00:33:00.392Z,73.10
2018-07-25T00:35:28.772Z,73.60
2018-07-25T00:37:57.130Z,74.90
2018-07-25T00:40:25.551Z,75.30
2018-07-25T00:42:54.002Z,75.50
2018-07-25T00:45:22.378Z,75.70
2018-07-25T00:47:50.804Z,74.80
2018-07-25T00:50:19.184Z,74.30
2018-07-25T00:52:47.721Z,73.80
2018-07-25T00:55:16.176Z,75.00
2018-07-25T00:57:44.533Z,74.60
2018-07-25T01:00:12.903Z,75.70
2018-07-25T01:02:41.316Z,77.50
2018-07-25T01:07:37.884Z,79.20
2018-07-25T01:12:34.479Z,79.30
2018-07-25T01:15:02.843Z,78.10
2018-07-25T01:17:31.271Z,77.40
2018-07-25T01:22:27.805Z,78.90
2018-07-25T01:24:56.207Z,79.60
2018-07-25T01:27:24.606Z,80.00
2018-07-25T01:29:52.986Z,79.10
2018-07-25T01:32:21.392Z,79.60
2018-07-25T01:34:49.779Z,79.80
2018-07-25T01:37:18.559Z,80.50
2018-07-25T01:39:46.987Z,80.70
2018-07-25T01:42:15.348Z,81.00
2018-07-25T01:44:43.716Z,81.10
2018-07-25T01:47:12.205Z,81.50
2018-07-25T01:49:40.562Z,81.40
2018-07-25T01:52:08.984Z,81.40
2018-07-25T01:57:05.819Z,81.10
2018-07-25T01:59:34.183Z,81.20
2018-07-25T02:02:02.609Z,81.60
2018-07-25T02:04:30.979Z,81.90
2018-07-25T02:06:59.372Z,81.10
2018-07-25T02:11:55.892Z,82.60
2018-07-25T02:14:24.250Z,82.70
2018-07-25T02:16:52.687Z,81.60
2018-07-25T02:21:49.166Z,81.00
2018-07-25T02:24:18.974Z,82.20
2018-07-25T02:26:47.417Z,83.00
2018-07-25T02:31:43.951Z,84.30
2018-07-25T02:34:22.000Z,84.30
2018-07-25T02:36:51.424Z,84.40
2018-07-25T02:39:19.838Z,84.90
2018-07-25T02:41:48.231Z,85.70
2018-07-25T02:44:16.627Z,86.00
2018-07-25T02:46:45.015Z,86.20
2018-07-25T02:49:13.370Z,86.60
2018-07-25T02:51:41.812Z,85.80
2018-07-25T02:54:10.172Z,85.50
2018-07-25T02:56:38.532Z,85.90
2018-07-25T02:59:06.915Z,86.10
2018-07-25T03:01:35.292Z,86.40
2018-07-25T03:04:03.675Z,86.40
2018-07-25T03:06:32.056Z,86.80
2018-07-25T03:09:00.445Z,86.80
2018-07-25T03:11:28.819Z,87.90
2018-07-25T03:13:57.228Z,88.20
2018-07-25T03:16:25.596Z,88.20
2018-07-25T03:18:53.963Z,88.10
2018-07-25T03:21:22.369Z,88.60
2018-07-25T03:23:50.736Z,89.30
2018-07-25T03:26:19.123Z,89.60
2018-07-25T03:28:47.534Z,90.00
2018-07-25T03:33:43.991Z,88.30
2018-07-25T03:36:12.396Z,89.00
2018-07-25T03:38:40.765Z,89.70
2018-07-25T03:41:09.162Z,90.20
2018-07-25T03:43:37.594Z,90.60
2018-07-25T03:46:05.981Z,91.10
2018-07-25T03:48:34.351Z,91.50
2018-07-25T03:51:02.754Z,90.80
2018-07-25T03:53:31.182Z,90.80
2018-07-25T03:55:59.571Z,91.20
2018-07-25T03:58:27.987Z,91.40
2018-07-25T04:00:56.364Z,91.70
2018-07-25T04:03:24.747Z,92.30
2018-07-25T04:05:53.198Z,92.60
2018-07-25T04:08:21.642Z,92.60
2018-07-25T04:10:50.401Z,93.10
2018-07-25T04:13:19.753Z,93.00
2018-07-25T04:15:48.374Z,93.20
2018-07-25T04:18:16.764Z,93.40
2018-07-25T04:23:13.281Z,92.80
2018-07-25T04:25:41.687Z,93.30
2018-07-25T04:28:10.106Z,92.10
2018-07-25T04:30:38.531Z,92.50
2018-07-25T04:33:06.905Z,92.90
2018-07-25T04:35:35.318Z,93.00
2018-07-25T04:38:03.706Z,93.20
2018-07-25T04:40:32.123Z,93.40
2018-07-25T04:43:00.551Z,93.50
2018-07-25T04:45:28.915Z,93.30
2018-07-25T04:50:25.427Z,93.50
2018-07-25T04:52:53.787Z,93.40
2018-07-25T04:55:22.222Z,93.40
2018-07-25T04:57:50.630Z,93.40
2018-07-25T05:00:18.989Z,93.40
2018-07-25T05:02:47.427Z,92.60
2018-07-25T05:05:15.839Z,91.90
2018-07-25T05:07:44.213Z,91.40
2018-07-25T05:10:12.619Z,91.20
2018-07-25T05:15:09.186Z,91.40
2018-07-25T05:17:37.567Z,92.00
2018-07-25T05:22:34.561Z,92.60
2018-07-25T05:25:02.935Z,91.90
2018-07-25T05:27:31.328Z,91.20
2018-07-25T05:29:59.714Z,92.00
2018-07-25T05:32:28.139Z,92.50
2018-07-25T05:34:56.555Z,92.00
2018-07-25T05:37:24.949Z,91.50
2018-07-25T05:39:53.331Z,92.20
2018-07-25T05:42:21.740Z,92.80
2018-07-25T05:47:18.290Z,91.30
2018-07-25T05:49:46.693Z,92.10
2018-07-25T05:54:43.140Z,92.50
2018-07-25T05:57:11.558Z,92.60
2018-07-25T05:59:39.978Z,92.70
2018-07-25T06:02:08.796Z,92.80
2018-07-25T06:04:37.317Z,91.60
2018-07-25T06:07:05.751Z,91.10
2018-07-25T06:09:34.105Z,90.20
2018-07-25T06:14:30.649Z,91.30
2018-07-25T06:16:59.009Z,91.50
2018-07-25T06:19:27.435Z,91.40
2018-07-25T06:21:55.934Z,90.90
2018-07-25T06:24:24.342Z,90.70
2018-07-25T06:26:52.771Z,89.60
2018-07-25T06:34:17.463Z,87.70
2018-07-25T06:36:45.789Z,87.80
2018-07-25T06:39:14.310Z,86.90
2018-07-25T06:41:42.732Z,86.20
2018-07-25T06:46:39.319Z,83.20
2018-07-25T06:49:08.327Z,84.40
2018-07-25T06:51:36.943Z,84.40
2018-07-25T06:54:05.421Z,84.40
2018-07-25T06:56:33.919Z,84.20
2018-07-25T07:01:30.442Z,84.00
2018-07-25T07:03:58.861Z,84.50
2018-07-25T07:08:55.435Z,80.50
2018-07-25T07:11:23.857Z,81.20
2018-07-25T07:13:52.360Z,81.80
2018-07-25T07:18:48.867Z,80.90
2018-07-25T07:21:17.267Z,81.40
2018-07-25T07:23:45.653Z,82.10
2018-07-25T07:26:14.072Z,82.20
2018-07-25T07:31:10.531Z,81.90
2018-07-25T07:33:38.960Z,82.50
2018-07-25T07:36:10.289Z,81.50
2018-07-25T07:41:06.926Z,81.70
2018-07-25T07:43:35.319Z,81.30
2018-07-25T07:46:03.904Z,78.10
2018-07-25T07:48:32.329Z,78.50
2018-07-25T07:51:00.741Z,79.00
2018-07-25T07:53:29.121Z,79.20
2018-07-25T07:55:57.559Z,78.70
2018-07-25T07:58:25.948Z,78.50
2018-07-25T08:00:54.375Z,78.70
2018-07-25T08:03:22.790Z,78.00
2018-07-25T08:05:51.163Z,77.90
2018-07-25T08:08:19.583Z,77.50
2018-07-25T08:10:48.041Z,77.80
2018-07-25T08:13:16.342Z,77.20
2018-07-25T08:15:44.748Z,75.50
2018-07-25T08:18:13.183Z,76.30
2018-07-25T08:23:09.684Z,77.80
2018-07-25T08:25:38.153Z,77.90
2018-07-25T08:28:06.728Z,78.70
2018-07-25T08:30:35.094Z,78.10
2018-07-25T08:33:03.528Z,77.80
2018-07-25T08:35:31.927Z,77.20
2018-07-25T08:38:00.366Z,76.90
2018-07-25T08:40:28.810Z,76.00
2018-07-25T08:45:25.320Z,76.20
2018-07-25T08:47:53.759Z,75.50
2018-07-25T08:50:22.171Z,75.00
2018-07-25T08:52:50.603Z,74.80
2018-07-25T08:55:18.980Z,74.70
2018-07-25T09:00:15.471Z,73.60
2018-07-25T09:02:43.902Z,72.90
2018-07-25T09:05:12.286Z,73.00
2018-07-25T09:10:08.838Z,72.70
2018-07-25T09:15:05.510Z,71.60
2018-07-25T09:17:33.946Z,70.50
2018-07-25T09:20:02.398Z,68.90
2018-07-25T09:22:30.819Z,68.90
2018-07-25T09:27:27.381Z,66.60
2018-07-25T09:29:55.784Z,67.20
2018-07-25T09:32:24.240Z,67.00
2018-07-25T09:37:20.769Z,67.10
2018-07-25T09:39:49.202Z,66.90
2018-07-25T09:42:17.611Z,67.10
2018-07-25T09:44:45.988Z,65.50
2018-07-25T09:47:15.463Z,65.40
2018-07-25T09:49:43.843Z,65.00
2018-07-25T09:52:12.275Z,64.30
2018-07-25T09:54:40.686Z,62.80
2018-07-25T09:59:37.232Z,61.80
2018-07-25T10:04:33.817Z,60.30
2018-07-25T10:07:10.525Z,61.60
2018-07-25T10:12:07.001Z,61.30
2018-07-25T10:17:03.514Z,61.90
2018-07-25T10:19:31.914Z,61.50
2018-07-25T10:22:00.291Z,60.80
2018-07-25T10:24:28.726Z,60.10
2018-07-25T10:29:25.364Z,59.10
2018-07-25T10:31:53.805Z,59.40
2018-07-25T10:34:22.215Z,60.10
2018-07-25T10:39:18.754Z,61.00
2018-07-25T10:41:47.137Z,60.70
2018-07-25T10:44:15.546Z,61.20
2018-07-25T10:46:43.962Z,60.40
2018-07-25T10:49:12.352Z,60.90
2018-07-25T10:51:40.770Z,59.90
2018-07-25T10:54:27.614Z,60.30
2018-07-25T10:56:55.989Z,59.60
2018-07-25T10:59:24.379Z,59.60
2018-07-25T11:01:52.813Z,59.70
2018-07-25T11:06:49.360Z,59.50
2018-07-25T11:09:17.800Z,59.90
2018-07-25T11:11:46.177Z,59.10
2018-07-25T11:14:14.576Z,58.00
2018-07-25T11:16:43.011Z,58.20
2018-07-25T11:19:11.494Z,57.20
2018-07-25T11:21:39.856Z,58.20
2018-07-25T11:29:04.545Z,56.90
2018-07-25T11:31:33.037Z,56.80
2018-07-25T11:34:01.455Z,56.80
2018-07-25T11:36:29.880Z,55.50
2018-07-25T11:38:58.335Z,55.60
2018-07-25T11:41:26.728Z,55.80
2018-07-25T11:43:55.116Z,54.40
2018-07-25T11:46:23.561Z,54.50
2018-07-25T11:48:51.999Z,55.50
2018-07-25T11:53:48.503Z,54.50
2018-07-25T11:56:16.928Z,54.60
2018-07-25T12:01:13.553Z,53.40
2018-07-25T12:03:41.863Z,52.70
2018-07-25T12:06:10.279Z,53.30
2018-07-25T12:08:38.685Z,54.10
2018-07-25T12:11:07.993Z,53.30
2018-07-25T12:13:36.639Z,53.00
2018-07-25T12:16:05.135Z,51.90
2018-07-25T12:18:33.691Z,51.90
2018-07-25T12:21:02.093Z,52.40
2018-07-25T12:23:30.563Z,51.30
2018-07-25T12:25:58.972Z,52.00
2018-07-25T12:28:27.384Z,52.20
2018-07-25T12:30:55.840Z,52.30
2018-07-25T12:33:24.236Z,52.70
2018-07-25T12:35:52.737Z,48.80
2018-07-25T12:43:17.413Z,34.90
2018-07-25T12:45:45.835Z,32.00
2018-07-25T12:48:14.221Z,30.10
2018-07-25T12:50:42.653Z,28.70
2018-07-25T12:53:11.131Z,29.10
2018-07-25T12:55:39.490Z,28.50
2018-07-25T12:58:07.905Z,27.80
2018-07-25T13:00:36.388Z,27.00
2018-07-25T13:03:04.969Z,26.50
2018-07-25T13:05:33.420Z,26.00
2018-07-25T13:12:58.104Z,24.20
2018-07-25T13:15:26.551Z,23.60
2018-07-25T13:17:54.989Z,22.80
2018-07-25T13:22:51.578Z,22.20
2018-07-25T13:27:48.241Z,21.90
2018-07-25T13:30:16.703Z,21.90
2018-07-25T13:32:45.150Z,21.60
2018-07-25T13:35:13.539Z,21.30
2018-07-25T13:40:10.140Z,21.00
2018-07-25T13:42:38.641Z,20.90
2018-07-25T13:45:07.190Z,20.80
2018-07-25T13:47:35.636Z,20.90
2018-07-25T13:52:32.353Z,19.70
2018-07-25T13:55:00.763Z,19.90
2018-07-25T14:04:55.305Z,19.30
2018-07-25T14:09:52.241Z,19.30
2018-07-25T14:12:20.641Z,19.50
2018-07-25T14:17:18.326Z,19.50
2018-07-25T14:22:15.036Z,19.60
2018-07-25T14:24:43.493Z,19.40
2018-07-25T14:27:12.183Z,18.50
2018-07-25T14:32:08.810Z,20.00
2018-07-25T14:37:05.436Z,19.50
2018-07-25T14:39:33.923Z,19.40
2018-07-25T14:42:02.369Z,18.20
2018-07-25T14:46:59.402Z,17.80
2018-07-25T14:49:27.757Z,18.90
2018-07-25T14:54:24.424Z,19.90
2018-07-25T14:56:52.871Z,19.30
2018-07-25T14:59:21.309Z,19.30
2018-07-25T15:01:49.706Z,19.40
2018-07-25T15:04:18.173Z,19.30
2018-07-25T15:06:46.719Z,19.50
2018-07-25T15:14:11.514Z,19.90
2018-07-25T15:16:39.955Z,19.60
2018-07-25T15:19:08.367Z,19.50
2018-07-25T15:21:36.853Z,19.50
2018-07-25T15:24:06.546Z,19.50
2018-07-25T15:26:34.993Z,19.30
2018-07-25T15:31:31.986Z,19.20
2018-07-25T15:34:00.427Z,19.50
2018-07-25T15:39:33.490Z,20.70
2018-07-25T15:42:01.953Z,21.40
2018-07-25T15:44:30.471Z,22.20
2018-07-25T15:46:58.957Z,22.30
2018-07-25T15:49:27.369Z,22.10
2018-07-25T15:51:55.776Z,20.70
2018-07-25T15:54:24.227Z,21.90
2018-07-25T15:56:52.709Z,22.70
2018-07-25T16:01:49.293Z,23.30
2018-07-25T16:04:17.790Z,23.40
2018-07-25T16:06:46.239Z,22.60
2018-07-25T16:09:14.649Z,22.10
2018-07-25T16:11:43.130Z,22.10
2018-07-25T16:14:11.543Z,22.30
2018-07-25T16:19:08.131Z,23.20
2018-07-25T16:21:36.527Z,23.30
2018-07-25T16:24:04.968Z,23.00
2018-07-25T16:26:33.370Z,23.30
2018-07-25T16:29:02.305Z,23.70
2018-07-25T16:31:30.734Z,23.50
2018-07-25T16:33:59.147Z,24.00
2018-07-25T16:36:27.542Z,24.00
2018-07-25T16:38:55.975Z,24.70
2018-07-25T16:41:24.426Z,24.90
2018-07-25T16:46:20.943Z,25.40
2018-07-25T16:48:49.396Z,25.60
2018-07-25T16:51:17.819Z,26.00
2018-07-25T16:53:46.218Z,26.00
2018-07-25T17:01:10.923Z,26.00
2018-07-25T17:03:39.397Z,25.60
2018-07-25T17:06:07.803Z,25.90
2018-07-25T17:08:36.185Z,26.10
2018-07-25T17:16:00.916Z,25.60
2018-07-25T17:23:25.645Z,25.70
2018-07-25T17:25:54.083Z,25.90
2018-07-25T17:28:22.520Z,25.70
2018-07-25T17:30:50.945Z,25.80
2018-07-25T17:33:19.375Z,26.00
2018-07-25T17:38:15.914Z,25.40
2018-07-25T17:43:12.482Z,25.40
2018-07-25T17:48:09.200Z,25.50
2018-07-25T17:50:37.564Z,26.40
2018-07-25T17:53:06.132Z,26.70
2018-07-25T17:55:34.678Z,26.80
2018-07-25T17:58:02.991Z,27.20
2018-07-25T18:00:31.405Z,27.50
2018-07-25T18:02:59.896Z,27.90
2018-07-25T18:05:28.294Z,28.30
2018-07-25T18:10:24.884Z,27.50
2018-07-25T18:13:11.124Z,28.10
2018-07-25T18:15:39.596Z,27.70
2018-07-25T18:18:08.032Z,28.40
2018-07-25T18:20:36.435Z,29.00
2018-07-25T18:23:04.883Z,29.20
2018-07-25T18:25:33.278Z,29.70
2018-07-25T18:28:01.707Z,29.70
2018-07-25T18:30:30.102Z,30.20
2018-07-25T18:35:26.644Z,31.60
2018-07-25T18:40:23.230Z,32.30
2018-07-25T18:42:54.102Z,33.60
2018-07-25T18:45:22.572Z,34.10
2018-07-25T18:47:50.980Z,34.60
2018-07-25T18:50:19.437Z,35.00
2018-07-25T18:52:47.897Z,35.50
2018-07-25T18:55:20.751Z,35.30
2018-07-25T19:00:19.515Z,36.30
2018-07-25T19:02:49.052Z,36.90
2018-07-25T19:05:21.476Z,37.10
2018-07-25T19:07:49.872Z,37.50
2018-07-25T19:10:18.316Z,37.10
2018-07-25T19:12:47.151Z,37.60
2018-07-25T19:15:32.213Z,38.00
2018-07-25T19:18:02.100Z,38.20
2018-07-25T19:20:30.954Z,38.90
2018-07-25T19:23:00.197Z,38.70
2018-07-25T19:25:29.097Z,39.00
2018-07-25T19:27:59.403Z,39.10
2018-07-25T19:30:29.552Z,39.30
2018-07-25T19:32:59.300Z,40.10
2018-07-25T19:35:29.205Z,40.60
2018-07-25T19:37:57.977Z,41.40
2018-07-25T19:40:27.175Z,41.10
2018-07-25T19:42:55.662Z,40.90
2018-07-25T19:45:24.131Z,41.40
2018-07-25T19:47:58.965Z,41.70
2018-07-25T19:50:30.476Z,41.90
2018-07-25T19:53:00.104Z,42.40
2018-07-25T19:55:28.255Z,42.70
2018-07-25T19:58:01.263Z,43.00
2018-07-25T20:00:28.707Z,43.40
2018-07-25T20:02:59.163Z,43.50
2018-07-25T20:05:28.988Z,43.60
2018-07-25T20:07:59.751Z,43.50
2018-07-25T20:12:56.789Z,44.40
2018-07-25T20:15:43.128Z,44.60
2018-07-25T20:18:11.554Z,44.70
2018-07-25T20:20:41.079Z,44.80
2018-07-25T20:25:37.158Z,45.70
2018-07-25T20:28:05.785Z,45.20
2018-07-25T20:30:35.757Z,45.70
2018-07-25T20:33:05.988Z,46.10
2018-07-25T20:35:34.408Z,46.50
2018-07-25T20:38:03.632Z,46.70
2018-07-25T20:40:32.130Z,46.80
2018-07-25T20:45:31.406Z,47.40
2018-07-25T20:48:00.508Z,47.40
2018-07-25T20:50:28.932Z,47.20
2018-07-25T20:52:57.919Z,47.40
2018-07-25T20:57:57.262Z,47.70
2018-07-25T21:00:37.746Z,48.00
2018-07-25T21:03:07.217Z,48.20
2018-07-25T21:05:35.662Z,48.80
2018-07-25T21:10:38.108Z,49.70
2018-07-25T21:13:06.482Z,50.10
2018-07-25T21:15:34.891Z,50.40
2018-07-25T21:18:03.294Z,50.80
2018-07-25T21:22:59.884Z,50.70
2018-07-25T21:25:28.290Z,51.30
2018-07-25T21:27:56.703Z,51.30
2018-07-25T21:30:25.178Z,51.70
2018-07-25T21:32:53.584Z,52.10
2018-07-25T21:37:50.180Z,52.70
2018-07-25T21:40:18.607Z,53.20
2018-07-25T21:50:17.804Z,54.70
2018-07-25T21:52:46.239Z,54.20
2018-07-25T22:00:14.720Z,55.70
2018-07-25T22:02:44.157Z,56.10
2018-07-25T22:05:12.892Z,56.10
2018-07-25T22:07:41.356Z,56.60
2018-07-25T22:10:10.057Z,57.00
2018-07-25T22:12:39.237Z,57.60
2018-07-25T22:15:08.155Z,58.20
2018-07-25T22:17:36.903Z,58.40
2018-07-25T22:20:06.712Z,59.50
2018-07-25T22:27:31.660Z,62.70
2018-07-25T22:30:00.054Z,63.50
2018-07-25T22:32:28.461Z,64.00
2018-07-25T22:34:56.858Z,64.70
2018-07-25T22:37:25.323Z,65.40
2018-07-25T22:39:53.702Z,65.10
2018-07-25T22:42:22.096Z,65.20
2018-07-25T22:44:50.550Z,65.70
2018-07-25T22:47:18.940Z,65.30
2018-07-25T22:49:47.329Z,65.90
2018-07-25T22:52:15.797Z,66.00
2018-07-25T22:54:44.318Z,65.90
2018-07-25T22:59:40.908Z,66.00
2018-07-25T23:02:09.314Z,67.10
2018-07-25T23:04:37.694Z,67.80
2018-07-25T23:07:06.376Z,68.10
2018-07-25T23:09:34.770Z,68.80
2018-07-25T23:12:03.140Z,68.80
2018-07-25T23:14:31.631Z,69.40
2018-07-25T23:17:00.006Z,70.10
2018-07-25T23:19:28.393Z,69.90
2018-07-25T23:21:56.827Z,69.30
2018-07-25T23:24:25.210Z,69.60
2018-07-25T23:26:53.586Z,70.80
2018-07-25T23:29:22.010Z,71.40
2018-07-25T23:31:50.408Z,72.20
2018-07-25T23:34:18.808Z,72.10
2018-07-25T23:36:47.254Z,71.60
2018-07-25T23:39:15.648Z,72.10
2018-07-25T23:41:44.016Z,72.50
2018-07-25T23:46:40.516Z,74.20
2018-07-25T23:49:08.902Z,74.50
2018-07-25T23:51:37.318Z,74.40
2018-07-25T23:54:05.788Z,74.20
2018-07-25T23:56:34.184Z,74.30
2018-07-25T23:59:02.593Z,75.10
